Catawba, Ohio
Current Conditions -  °F | °C
As of 8:15 AM on Friday 24 Oct 2014 (Local Time) from KUYF Reporting Station
Haze Haze  
Wind Chill: 35°   Ceiling: Unl
Heat Index: 39°   Visibility: 5mi
Dew Point: 37°   Wind: 6mph
Humidity: 93%   Direction: 220°SW
Pressure: 30.11"   Gusts: NA
Location:  40°N, 83.62°W
Report Text: KUYF 241215Z AUTO 22005KT 5SM BR CLR 04/03 A3011 RMK AO2
Loading
Personal Weather Stations






























Interactive Weather Map
Tropical Storm Tracking
New forecast layout! Learn more

10-Day Weather Forecast

Advertisements
Track Severe Weather on mobile